Terminal Aerodrome Forecast
Issued by NWS Blacksburg, VA

Home | Current Version | Previous Version | Text Only | Print | Product List | Glossary On
Versions: 1 2 3 4 5 6 7 8 9 10 11 12 13 14 15 16 17 18 19 20 21 22 23 24 25 26 27 28 29 30 31 32 33 34 35 36 37 38
000
FTUS41 KRNK 290802 CCB
TAFLYH
TAF COR
KLYH 290802Z 2908/3006 00000KT P6SM SKC
      TEMPO 2908/2912 3SM BR SCT005
     FM291400 14004KT P6SM SCT025
     FM291900 16006KT P6SM VCTS BKN060CB
     FM300000 VRB02KT P6SM SCT050 BKN100=

USA.gov is the U.S. government's official web portal to all federal, state and local government web resources and services.